Elrama, Pennsylvania
Current Conditions -  °F | °C
As of 3:53 PM on Tuesday 25 Nov 2014 (Local Time) from KAGC Reporting Station
Scattered Clouds Scattered Clouds  
Wind Chill:   Ceiling: Unl
Heat Index:   Visibility: 10mi
Dew Point: -4°   Wind: 13mph
Humidity: 41%   Direction: 280°W
Pressure: 30.03"   Gusts: 17mph
Location:  40.25°N, 79.92°W
Report Text: KAGC 252053Z 28011G15KT 10SM SCT050 08/M04 A3003 RMK AO2 SLP180 T00831044 53008
Loading
Personal Weather Stations






























Interactive Weather Map New forecast layout! Learn more

10-Day Weather Forecast

Advertisements
Track Severe Weather on mobile